createdAt,value
2018-12-11T00:00:56.415Z,3.50
2018-12-11T00:03:23.883Z,3.43
2018-12-11T00:05:51.328Z,3.77
2018-12-11T00:08:18.772Z,3.60
2018-12-11T00:10:46.240Z,3.50
2018-12-11T00:13:13.683Z,3.73
2018-12-11T00:15:41.157Z,3.60
2018-12-11T00:18:08.607Z,3.70
2018-12-11T00:20:36.049Z,3.90
2018-12-11T00:23:03.547Z,4.10
2018-12-11T00:25:30.996Z,3.80
2018-12-11T00:27:58.439Z,3.50
2018-12-11T00:30:25.877Z,4.40
2018-12-11T00:32:53.346Z,4.57
2018-12-11T00:35:20.832Z,5.20
2018-12-11T00:37:48.304Z,5.27
2018-12-11T00:40:15.759Z,4.37
2018-12-11T00:42:43.204Z,4.60
2018-12-11T00:45:10.676Z,4.53
2018-12-11T00:47:38.120Z,4.13
2018-12-11T00:50:06.712Z,4.80
2018-12-11T00:52:34.156Z,4.70
2018-12-11T00:55:01.609Z,5.37
2018-12-11T00:57:29.080Z,5.20
2018-12-11T00:59:56.516Z,5.50
2018-12-11T01:02:24.044Z,5.90
2018-12-11T01:04:51.496Z,5.60
2018-12-11T01:07:18.956Z,6.47
2018-12-11T01:09:46.455Z,6.20
2018-12-11T01:12:13.911Z,6.10
2018-12-11T01:14:41.364Z,6.37
2018-12-11T01:17:08.832Z,6.17
2018-12-11T01:19:36.307Z,6.57
2018-12-11T01:22:03.867Z,5.83
2018-12-11T01:24:31.310Z,6.47
2018-12-11T01:26:58.783Z,6.83
2018-12-11T01:29:26.232Z,7.20
2018-12-11T01:31:53.695Z,6.70
2018-12-11T01:34:21.145Z,6.80
2018-12-11T01:36:48.588Z,6.73
2018-12-11T01:39:16.036Z,6.37
2018-12-11T01:41:43.507Z,5.93
2018-12-11T01:44:10.940Z,5.40
2018-12-11T01:46:38.490Z,6.07
2018-12-11T01:49:06.028Z,6.07
2018-12-11T01:51:33.473Z,6.00
2018-12-11T01:54:00.923Z,4.83
2018-12-11T01:56:28.359Z,5.63
2018-12-11T01:58:55.804Z,5.60
2018-12-11T02:01:23.267Z,5.33
2018-12-11T02:03:50.951Z,5.27
2018-12-11T02:06:18.387Z,5.40
2018-12-11T02:08:45.897Z,4.33
2018-12-11T02:11:13.311Z,3.97
2018-12-11T02:13:40.788Z,3.97
2018-12-11T02:16:08.253Z,3.40
2018-12-11T02:18:43.467Z,3.10
2018-12-11T02:21:12.296Z,2.67
2018-12-11T02:23:39.967Z,3.20
2018-12-11T02:26:07.435Z,2.87
2018-12-11T02:28:34.878Z,2.97
2018-12-11T02:31:02.365Z,2.90
2018-12-11T02:33:29.814Z,2.27
2018-12-11T02:35:57.288Z,2.60
2018-12-11T02:38:24.779Z,2.93
2018-12-11T02:40:52.223Z,3.00
2018-12-11T02:43:20.008Z,2.70
2018-12-11T02:45:47.449Z,2.40
2018-12-11T02:48:14.884Z,2.50
2018-12-11T02:50:42.350Z,3.07
2018-12-11T02:53:09.887Z,2.83
2018-12-11T02:55:37.344Z,3.10
2018-12-11T02:58:04.788Z,3.27
2018-12-11T03:00:32.382Z,3.30
2018-12-11T03:02:59.806Z,3.70
2018-12-11T03:05:27.379Z,3.23
2018-12-11T03:07:54.817Z,3.53
2018-12-11T03:10:22.306Z,3.30
2018-12-11T03:12:49.768Z,3.63
2018-12-11T03:15:17.244Z,4.07
2018-12-11T03:17:44.664Z,3.40
2018-12-11T03:20:12.152Z,3.23
2018-12-11T03:22:39.584Z,3.87
2018-12-11T03:25:07.051Z,3.50
2018-12-11T03:27:34.508Z,4.07
2018-12-11T03:30:01.959Z,3.83
2018-12-11T03:32:29.488Z,3.63
2018-12-11T03:34:56.937Z,3.43
2018-12-11T03:37:24.384Z,3.63
2018-12-11T03:39:51.848Z,3.40
2018-12-11T03:42:19.320Z,4.10
2018-12-11T03:44:46.759Z,3.30
2018-12-11T03:47:14.199Z,3.17
2018-12-11T03:49:41.645Z,3.33
2018-12-11T03:52:09.092Z,3.07
2018-12-11T03:54:36.539Z,3.57
2018-12-11T03:57:03.985Z,3.47
2018-12-11T03:59:31.443Z,3.50
2018-12-11T04:01:58.891Z,3.97
2018-12-11T04:04:26.364Z,3.30
2018-12-11T04:06:53.858Z,3.30
2018-12-11T04:09:21.296Z,3.33
2018-12-11T04:11:48.721Z,3.40
2018-12-11T04:14:16.223Z,3.07
2018-12-11T04:16:43.667Z,3.27
2018-12-11T04:19:11.196Z,3.60
2018-12-11T04:21:38.639Z,3.13
2018-12-11T04:24:06.088Z,2.90
2018-12-11T04:26:33.531Z,3.10
2018-12-11T04:29:00.983Z,3.60
2018-12-11T04:31:28.449Z,3.23
2018-12-11T04:33:55.995Z,3.20
2018-12-11T04:36:23.437Z,2.80
2018-12-11T04:38:50.867Z,2.80
2018-12-11T04:41:18.335Z,4.23
2018-12-11T04:43:45.771Z,4.57
2018-12-11T04:46:13.261Z,4.17
2018-12-11T04:48:40.778Z,3.97
2018-12-11T04:51:08.311Z,4.23
2018-12-11T04:53:35.746Z,3.97
2018-12-11T04:56:03.212Z,3.63
2018-12-11T04:58:30.654Z,4.50
2018-12-11T05:00:58.096Z,4.50
2018-12-11T05:03:25.545Z,4.97
2018-12-11T05:05:53.015Z,4.67
2018-12-11T05:08:20.449Z,4.90
2018-12-11T05:10:47.919Z,4.53
2018-12-11T05:13:15.383Z,4.97
2018-12-11T05:15:42.855Z,4.60
2018-12-11T05:18:10.286Z,4.73
2018-12-11T05:20:37.755Z,4.67
2018-12-11T05:23:05.217Z,4.50
2018-12-11T05:25:32.662Z,5.00
2018-12-11T05:28:00.119Z,5.03
2018-12-11T05:30:27.555Z,5.10
2018-12-11T05:32:54.998Z,4.60
2018-12-11T05:35:22.463Z,4.10
2018-12-11T05:37:49.960Z,4.07
2018-12-11T05:40:17.403Z,4.43
2018-12-11T05:42:44.846Z,3.20
2018-12-11T05:45:12.295Z,3.33
2018-12-11T05:47:39.727Z,3.27
2018-12-11T05:50:07.216Z,3.20
2018-12-11T05:52:34.718Z,3.93
2018-12-11T05:55:02.196Z,3.60
2018-12-11T05:57:29.639Z,3.80
2018-12-11T05:59:57.084Z,3.27
2018-12-11T06:02:24.520Z,3.17
2018-12-11T06:04:51.980Z,3.37
2018-12-11T06:07:20.243Z,3.60
2018-12-11T06:09:47.712Z,2.97
2018-12-11T06:12:15.175Z,2.93
2018-12-11T06:14:42.625Z,3.50
2018-12-11T06:17:10.058Z,3.57
2018-12-11T06:19:37.512Z,3.77
2018-12-11T06:22:04.994Z,3.67
2018-12-11T06:24:32.448Z,3.70
2018-12-11T06:26:59.914Z,4.33
2018-12-11T06:29:27.347Z,4.10
2018-12-11T06:31:54.823Z,4.00
2018-12-11T06:34:22.267Z,3.80
2018-12-11T06:36:49.739Z,4.20
2018-12-11T06:39:17.169Z,3.50
2018-12-11T06:41:44.612Z,4.37
2018-12-11T06:44:12.075Z,3.87
2018-12-11T06:46:39.513Z,3.70
2018-12-11T06:49:06.953Z,3.70
2018-12-11T06:51:34.395Z,3.83
2018-12-11T06:54:01.847Z,4.63
2018-12-11T06:56:29.283Z,3.93
2018-12-11T06:58:56.720Z,4.50
2018-12-11T07:01:24.171Z,4.47
2018-12-11T07:03:51.628Z,4.17
2018-12-11T07:06:19.100Z,4.10
2018-12-11T07:08:46.559Z,3.83
2018-12-11T07:11:14.001Z,3.80
2018-12-11T07:13:41.464Z,4.90
2018-12-11T07:16:08.912Z,5.90
2018-12-11T07:21:10.424Z,4.37
2018-12-11T07:23:37.963Z,4.97
2018-12-11T07:26:05.436Z,4.40
2018-12-11T07:28:32.903Z,4.90
2018-12-11T07:31:00.437Z,4.37
2018-12-11T07:33:27.920Z,4.20
2018-12-11T07:35:55.369Z,3.97
2018-12-11T07:38:22.808Z,3.57
2018-12-11T07:40:50.251Z,4.53
2018-12-11T07:43:17.692Z,3.50
2018-12-11T07:45:45.135Z,3.70
2018-12-11T07:48:12.575Z,3.53
2018-12-11T07:50:40.027Z,3.00
2018-12-11T07:53:07.465Z,3.60
2018-12-11T07:55:34.906Z,3.17
2018-12-11T07:58:02.380Z,3.93
2018-12-11T08:00:29.870Z,3.33
2018-12-11T08:02:57.299Z,4.20
2018-12-11T08:05:24.755Z,4.00
2018-12-11T08:07:52.193Z,3.90
2018-12-11T08:10:19.647Z,4.97
2018-12-11T08:12:47.102Z,4.00
2018-12-11T08:15:14.576Z,4.80
2018-12-11T08:17:42.003Z,4.37
2018-12-11T08:20:09.479Z,3.97
2018-12-11T08:22:36.951Z,3.70
2018-12-11T08:25:04.423Z,4.63
2018-12-11T08:27:31.911Z,4.87
2018-12-11T08:29:59.348Z,4.43
2018-12-11T08:32:26.790Z,4.97
2018-12-11T08:34:54.255Z,4.33
2018-12-11T08:37:21.695Z,4.00
2018-12-11T08:39:49.129Z,3.87
2018-12-11T08:42:16.575Z,3.70
2018-12-11T08:44:44.019Z,4.27
2018-12-11T08:47:11.467Z,4.30
2018-12-11T08:49:38.907Z,3.87
2018-12-11T08:52:06.346Z,4.97
2018-12-11T08:54:33.787Z,4.20
2018-12-11T08:57:01.245Z,4.63
2018-12-11T08:59:28.692Z,4.57
2018-12-11T09:01:56.165Z,4.40
2018-12-11T09:04:23.584Z,4.77
2018-12-11T09:06:51.029Z,4.07
2018-12-11T09:09:18.463Z,4.30
2018-12-11T09:11:45.935Z,4.30
2018-12-11T09:14:13.366Z,3.50
2018-12-11T09:16:40.807Z,4.30
2018-12-11T09:19:08.331Z,4.33
2018-12-11T09:21:35.780Z,4.50
2018-12-11T09:24:03.249Z,3.93
2018-12-11T09:26:30.703Z,4.07
2018-12-11T09:28:58.233Z,4.80
2018-12-11T09:31:25.699Z,4.50
2018-12-11T09:33:53.141Z,4.73
2018-12-11T09:36:20.611Z,4.67
2018-12-11T09:38:48.055Z,3.93
2018-12-11T09:41:15.551Z,4.17
2018-12-11T09:43:43.040Z,4.27
2018-12-11T09:46:10.501Z,4.40
2018-12-11T09:48:37.923Z,4.10
2018-12-11T09:51:05.415Z,4.03
2018-12-11T09:53:32.851Z,5.27
2018-12-11T09:56:00.291Z,4.20
2018-12-11T09:58:27.727Z,3.87
2018-12-11T10:00:55.168Z,4.30
2018-12-11T10:03:22.599Z,4.60
2018-12-11T10:05:50.035Z,4.47
2018-12-11T10:08:17.468Z,4.73
2018-12-11T10:10:44.935Z,5.20
2018-12-11T10:13:12.402Z,5.20
2018-12-11T10:15:39.839Z,4.40
2018-12-11T10:18:07.284Z,4.63
2018-12-11T10:20:34.745Z,4.77
2018-12-11T10:23:02.626Z,4.33
2018-12-11T10:25:30.089Z,5.00
2018-12-11T10:27:57.535Z,4.50
2018-12-11T10:30:26.932Z,5.03
2018-12-11T10:32:54.371Z,4.87
2018-12-11T10:35:21.798Z,5.40
2018-12-11T10:37:49.267Z,5.50
2018-12-11T10:40:16.730Z,5.40
2018-12-11T10:42:44.180Z,5.53
2018-12-11T10:45:11.607Z,5.60
2018-12-11T10:47:39.047Z,5.63
2018-12-11T10:50:06.530Z,6.10
2018-12-11T10:52:33.971Z,3.80
2018-12-11T10:55:01.407Z,4.80
2018-12-11T10:57:28.878Z,3.83
2018-12-11T10:59:56.325Z,3.63
2018-12-11T11:02:25.689Z,3.03
2018-12-11T11:04:53.119Z,3.20
2018-12-11T11:07:20.601Z,2.73
2018-12-11T11:09:48.062Z,3.63
2018-12-11T11:12:15.500Z,2.90
2018-12-11T11:14:43.022Z,3.00
2018-12-11T11:17:10.552Z,2.73
2018-12-11T11:19:37.976Z,3.03
2018-12-11T11:22:05.537Z,2.93
2018-12-11T11:24:32.980Z,3.10
2018-12-11T11:27:00.414Z,3.20
2018-12-11T11:29:27.858Z,2.67
2018-12-11T11:31:55.305Z,3.00
2018-12-11T11:34:22.773Z,3.03
2018-12-11T11:36:50.216Z,3.17
2018-12-11T11:39:17.664Z,3.87
2018-12-11T11:41:45.212Z,3.07
2018-12-11T11:44:12.672Z,2.60
2018-12-11T11:46:40.117Z,3.17
2018-12-11T11:49:07.555Z,3.40
2018-12-11T11:51:35.315Z,3.33
2018-12-11T11:54:02.755Z,2.90
2018-12-11T11:56:30.203Z,2.80
2018-12-11T11:58:57.657Z,3.07
2018-12-11T12:01:25.117Z,3.10
2018-12-11T12:03:52.565Z,3.50
2018-12-11T12:06:20.005Z,3.33
2018-12-11T12:08:47.480Z,2.90
2018-12-11T12:11:14.951Z,3.47
2018-12-11T12:13:42.399Z,3.40
2018-12-11T12:16:09.838Z,3.00
2018-12-11T12:18:37.277Z,3.10
2018-12-11T12:21:04.739Z,3.67
2018-12-11T12:23:32.222Z,3.10
2018-12-11T12:25:59.671Z,2.70
2018-12-11T12:28:27.175Z,3.53
2018-12-11T12:30:55.745Z,3.90
2018-12-11T12:33:23.202Z,3.30
2018-12-11T12:35:50.635Z,4.20
2018-12-11T12:38:18.113Z,3.17
2018-12-11T12:40:45.552Z,3.17
2018-12-11T12:43:12.993Z,3.17
2018-12-11T12:45:40.427Z,3.70
2018-12-11T12:48:07.872Z,3.77
2018-12-11T12:50:35.320Z,3.80
2018-12-11T12:53:02.774Z,3.00
2018-12-11T12:55:31.489Z,3.50
2018-12-11T12:57:59.146Z,3.87
2018-12-11T13:00:26.583Z,3.33
2018-12-11T13:02:54.093Z,3.40
2018-12-11T13:05:21.555Z,3.27
2018-12-11T13:07:49.056Z,3.43
2018-12-11T13:10:16.496Z,3.40
2018-12-11T13:12:43.975Z,3.07
2018-12-11T13:15:11.492Z,3.00
2018-12-11T13:17:41.253Z,3.23
2018-12-11T13:20:08.695Z,2.70
2018-12-11T13:22:36.138Z,3.20
2018-12-11T13:25:04.120Z,3.10
2018-12-11T13:27:31.565Z,3.23
2018-12-11T13:29:59.012Z,7.83
2018-12-11T13:32:26.479Z,5.33
2018-12-11T13:34:53.935Z,5.77
2018-12-11T13:37:21.495Z,5.33
2018-12-11T13:39:48.953Z,4.40
2018-12-11T13:42:16.394Z,4.20
2018-12-11T13:44:43.833Z,3.30
2018-12-11T13:47:11.400Z,3.10
2018-12-11T13:49:38.869Z,3.53
2018-12-11T13:52:06.316Z,3.53
2018-12-11T13:54:33.813Z,3.47
2018-12-11T13:57:01.351Z,3.20
2018-12-11T13:59:28.812Z,4.17
2018-12-11T14:01:56.252Z,2.97
2018-12-11T14:04:23.716Z,3.07
2018-12-11T14:06:51.188Z,3.30
2018-12-11T14:09:24.396Z,2.60
2018-12-11T14:11:51.859Z,3.80
2018-12-11T14:14:19.303Z,3.37
2018-12-11T14:16:46.767Z,4.10
2018-12-11T14:19:14.217Z,3.63
2018-12-11T14:21:41.652Z,3.77
2018-12-11T14:24:09.143Z,3.87
2018-12-11T14:26:36.639Z,3.63
2018-12-11T14:29:04.134Z,4.00
2018-12-11T14:31:31.625Z,3.70
2018-12-11T14:33:59.158Z,3.73
2018-12-11T14:36:26.600Z,4.20
2018-12-11T14:38:54.044Z,3.53
2018-12-11T14:41:21.643Z,3.90
2018-12-11T14:43:49.087Z,3.97
2018-12-11T14:46:16.566Z,3.57
2018-12-11T14:48:43.987Z,3.80
2018-12-11T14:51:11.419Z,3.67
2018-12-11T14:53:38.869Z,4.10
2018-12-11T14:56:06.314Z,4.00
2018-12-11T14:58:33.755Z,4.00
2018-12-11T15:01:01.211Z,3.63
2018-12-11T15:03:28.672Z,3.80
2018-12-11T15:05:56.111Z,3.87
2018-12-11T15:08:23.550Z,3.50
2018-12-11T15:10:50.997Z,3.47
2018-12-11T15:13:18.438Z,3.30
2018-12-11T15:15:45.888Z,3.20
2018-12-11T15:18:13.323Z,3.43
2018-12-11T15:20:40.766Z,4.10
2018-12-11T15:23:08.211Z,3.50
2018-12-11T15:25:35.714Z,4.20
2018-12-11T15:28:03.206Z,4.37
2018-12-11T15:30:30.639Z,4.03
2018-12-11T15:32:58.119Z,3.87
2018-12-11T15:35:25.572Z,3.07
2018-12-11T15:37:53.004Z,3.87
2018-12-11T15:40:20.490Z,3.30
2018-12-11T15:42:47.956Z,3.10
2018-12-11T15:45:15.452Z,3.63
2018-12-11T15:47:42.907Z,3.77
2018-12-11T15:50:10.358Z,3.37
2018-12-11T15:52:37.797Z,3.30
2018-12-11T15:55:05.882Z,3.50
2018-12-11T15:57:33.339Z,3.40
2018-12-11T16:00:00.779Z,3.57
2018-12-11T16:02:28.207Z,4.00
2018-12-11T16:04:55.655Z,4.30
2018-12-11T16:07:23.087Z,3.60
2018-12-11T16:09:50.537Z,4.80
2018-12-11T16:12:17.974Z,4.00
2018-12-11T16:14:45.435Z,4.67
2018-12-11T16:17:12.868Z,4.70
2018-12-11T16:19:40.307Z,4.53
2018-12-11T16:22:07.783Z,4.37
2018-12-11T16:24:35.248Z,4.83
2018-12-11T16:27:02.719Z,4.50
2018-12-11T16:29:30.178Z,4.40
2018-12-11T16:31:57.619Z,4.23
2018-12-11T16:34:25.060Z,4.50
2018-12-11T16:36:52.508Z,4.40
2018-12-11T16:39:19.943Z,4.67
2018-12-11T16:41:47.390Z,4.37
2018-12-11T16:44:14.852Z,3.90
2018-12-11T16:46:42.327Z,4.13
2018-12-11T16:49:09.767Z,4.40
2018-12-11T16:51:37.223Z,4.53
2018-12-11T16:54:04.659Z,4.50
2018-12-11T16:56:32.097Z,4.33
2018-12-11T16:58:59.531Z,4.27
2018-12-11T17:01:26.969Z,4.70
2018-12-11T17:03:54.419Z,4.93
2018-12-11T17:06:21.848Z,5.90
2018-12-11T17:08:49.285Z,5.33
2018-12-11T17:11:16.751Z,5.30
2018-12-11T17:13:44.183Z,5.30
2018-12-11T17:16:11.664Z,4.70
2018-12-11T17:18:39.169Z,5.43
2018-12-11T17:21:06.643Z,4.93
2018-12-11T17:23:34.076Z,5.10
2018-12-11T17:26:01.526Z,5.47
2018-12-11T17:28:28.963Z,5.03
2018-12-11T17:30:56.445Z,4.80
2018-12-11T17:33:23.875Z,5.20
2018-12-11T17:35:51.352Z,5.00
2018-12-11T17:38:18.894Z,4.80
2018-12-11T17:40:46.347Z,5.57
2018-12-11T17:43:13.792Z,4.50
2018-12-11T17:45:41.251Z,4.97
2018-12-11T17:48:09.431Z,4.87
2018-12-11T17:50:37.802Z,4.53
2018-12-11T17:53:05.235Z,4.67
2018-12-11T17:55:32.670Z,4.03
2018-12-11T17:58:00.112Z,4.63
2018-12-11T18:00:27.543Z,5.00
2018-12-11T18:02:55.016Z,4.20
2018-12-11T18:05:22.451Z,5.07
2018-12-11T18:07:49.891Z,4.63
2018-12-11T18:10:17.343Z,4.47
2018-12-11T18:12:44.781Z,5.10
2018-12-11T18:15:12.243Z,4.23
2018-12-11T18:17:39.687Z,4.23
2018-12-11T18:20:07.280Z,4.47
2018-12-11T18:22:34.755Z,5.20
2018-12-11T18:25:02.248Z,5.20
2018-12-11T18:27:29.695Z,7.47
2018-12-11T18:29:57.130Z,8.67
2018-12-11T18:32:25.171Z,11.77
2018-12-11T18:34:52.931Z,9.90
2018-12-11T18:37:20.398Z,12.93
2018-12-11T18:39:47.843Z,10.37
2018-12-11T18:42:15.315Z,13.77
2018-12-11T18:44:42.779Z,11.63
2018-12-11T18:47:10.228Z,11.53
2018-12-11T18:49:37.695Z,11.73
2018-12-11T18:52:05.174Z,9.13
2018-12-11T18:54:32.619Z,10.47
2018-12-11T18:57:00.088Z,9.93
2018-12-11T18:59:27.523Z,9.87
2018-12-11T19:01:54.999Z,10.27
2018-12-11T19:04:22.491Z,8.33
2018-12-11T19:06:49.976Z,9.13
2018-12-11T19:09:17.499Z,8.37
2018-12-11T19:11:44.967Z,7.90
2018-12-11T19:14:12.414Z,8.13
2018-12-11T19:16:39.871Z,6.73
2018-12-11T19:19:07.344Z,8.80
2018-12-11T19:21:34.794Z,7.20
2018-12-11T19:24:04.037Z,7.17
2018-12-11T19:26:31.582Z,7.03
2018-12-11T19:28:59.024Z,7.80
2018-12-11T19:31:26.491Z,7.40
2018-12-11T19:33:54.030Z,6.90
2018-12-11T19:36:21.526Z,5.60
2018-12-11T19:38:48.955Z,6.73
2018-12-11T19:41:16.611Z,5.80
2018-12-11T19:43:44.091Z,6.27
2018-12-11T19:46:11.555Z,6.87
2018-12-11T19:48:38.995Z,6.93
2018-12-11T19:51:06.433Z,6.27
2018-12-11T19:53:33.879Z,6.20
2018-12-11T19:56:01.322Z,6.20
2018-12-11T19:58:28.762Z,5.20
2018-12-11T20:00:56.196Z,5.40
2018-12-11T20:03:23.642Z,5.97
2018-12-11T20:05:51.099Z,6.53
2018-12-11T20:08:18.568Z,6.67
2018-12-11T20:10:47.991Z,7.03
2018-12-11T20:13:15.436Z,6.80
2018-12-11T20:15:43.000Z,7.67
2018-12-11T20:18:13.037Z,7.03
2018-12-11T20:20:39.867Z,6.70
2018-12-11T20:23:07.311Z,5.97
2018-12-11T20:25:34.780Z,7.50
2018-12-11T20:28:02.222Z,8.60
2018-12-11T20:30:29.671Z,8.97
2018-12-11T20:32:57.121Z,8.67
2018-12-11T20:35:24.564Z,9.83
2018-12-11T20:37:52.015Z,10.13
2018-12-11T20:40:19.492Z,10.00
2018-12-11T20:42:46.931Z,9.93
2018-12-11T20:45:14.395Z,9.40
2018-12-11T20:47:41.843Z,8.37
2018-12-11T20:50:09.330Z,9.50
2018-12-11T20:52:36.823Z,9.37
2018-12-11T20:55:04.444Z,8.33
2018-12-11T20:57:31.880Z,7.80
2018-12-11T20:59:59.320Z,6.53
2018-12-11T21:02:26.756Z,7.60
2018-12-11T21:04:54.195Z,7.87
2018-12-11T21:07:21.639Z,9.27
2018-12-11T21:09:49.108Z,8.47
2018-12-11T21:12:16.539Z,8.90
2018-12-11T21:14:44.002Z,9.10
2018-12-11T21:17:11.435Z,8.70
2018-12-11T21:19:38.884Z,8.37
2018-12-11T21:22:06.332Z,9.57
2018-12-11T21:24:33.837Z,9.00
2018-12-11T21:27:01.303Z,8.83
2018-12-11T21:29:28.784Z,8.37
2018-12-11T21:31:56.218Z,7.63
2018-12-11T21:34:23.664Z,7.13
2018-12-11T21:36:51.132Z,7.13
2018-12-11T21:39:18.586Z,6.70
2018-12-11T21:41:46.029Z,7.30
2018-12-11T21:44:13.532Z,7.30
2018-12-11T21:46:41.088Z,8.30
2018-12-11T21:49:08.539Z,8.77
2018-12-11T21:51:36.021Z,8.07
2018-12-11T21:54:03.488Z,8.23
2018-12-11T21:56:30.959Z,9.13
2018-12-11T21:58:58.400Z,8.70
2018-12-11T22:01:25.891Z,8.60
2018-12-11T22:03:53.337Z,8.57
2018-12-11T22:06:20.887Z,8.93
2018-12-11T22:08:48.339Z,9.27
2018-12-11T22:11:15.778Z,7.60
2018-12-11T22:13:43.231Z,8.17
2018-12-11T22:16:10.680Z,9.13
2018-12-11T22:18:38.134Z,8.30
2018-12-11T22:21:05.569Z,8.40
2018-12-11T22:23:33.010Z,8.20
2018-12-11T22:26:00.447Z,8.67
2018-12-11T22:28:27.892Z,9.47
2018-12-11T22:30:55.336Z,9.57
2018-12-11T22:33:22.805Z,9.43
2018-12-11T22:35:50.251Z,10.20
2018-12-11T22:38:17.728Z,8.70
2018-12-11T22:40:45.179Z,9.40
2018-12-11T22:43:12.617Z,8.97
2018-12-11T22:45:40.075Z,8.60
2018-12-11T22:48:07.505Z,6.90
2018-12-11T22:50:34.957Z,7.83
2018-12-11T22:53:02.403Z,7.50
2018-12-11T22:55:29.889Z,6.90
2018-12-11T22:57:57.330Z,7.53
2018-12-11T23:00:25.026Z,7.20
2018-12-11T23:02:52.469Z,6.27
2018-12-11T23:05:19.951Z,7.53
2018-12-11T23:07:47.423Z,8.23
2018-12-11T23:10:14.873Z,8.20
2018-12-11T23:12:42.312Z,7.93
2018-12-11T23:15:09.787Z,7.50
2018-12-11T23:17:37.261Z,7.93
2018-12-11T23:20:04.771Z,8.17
2018-12-11T23:22:32.219Z,8.83
2018-12-11T23:24:59.816Z,7.87
2018-12-11T23:27:27.261Z,7.80
2018-12-11T23:29:54.724Z,7.63
2018-12-11T23:32:22.199Z,8.57
2018-12-11T23:34:51.292Z,8.53
2018-12-11T23:37:18.766Z,8.53
2018-12-11T23:39:46.227Z,7.08
2018-12-11T23:42:13.684Z,7.95
2018-12-11T23:44:41.127Z,7.87
2018-12-11T23:47:08.572Z,6.95
2018-12-11T23:49:36.020Z,7.23
2018-12-11T23:52:03.518Z,6.60
2018-12-11T23:54:30.967Z,7.42
2018-12-11T23:56:58.455Z,7.45
2018-12-11T23:59:29.165Z,7.73
